Time;durP1;ratioP1;P1;durP2;ratioP2;P2;SDS_P1;SDS_P2;PMS_P1;PMS_P2;Temp;Humidity;BMP_temperature;BMP_pressure;BME280_temperature;BME280_humidity;BME280_pressure;Samples;Min_cycle;Max_cycle;Signal;HPM_P1;HPM_P2
2021/03/08 00:01:31;;;;;;;31.02;20.70;;;;;;;;;;6330495;28;20056;-74
2021/03/08 00:04:40;;;;;;;28.60;20.10;;;;;;;;;;6282550;28;20055;-73
2021/03/08 00:07:46;;;;;;;27.58;19.38;;;;;;;;;;6299018;28;20063;-73
2021/03/08 00:10:47;;;;;;;26.95;19.08;;;;;;;;;;6300827;28;20051;-74
2021/03/08 00:13:49;;;;;;;27.25;19.23;;;;;;;;;;6299138;28;20064;-73
2021/03/08 00:20:32;;;;;;;30.95;20.30;;;;;;;;;;6297249;28;20044;-73
2021/03/08 00:23:34;;;;;;;30.05;20.00;;;;;;;;;;6303073;28;20049;-74
2021/03/08 00:26:57;;;;;;;29.15;20.50;;;;;;;;;;6301877;28;20048;-73
2021/03/08 00:30:28;;;;;;;30.35;20.17;;;;;;;;;;6292779;28;20128;-74
2021/03/08 00:34:18;;;;;;;28.63;19.45;;;;;;;;;;6286889;28;20055;-73
2021/03/08 00:37:26;;;;;;;28.08;20.20;;;;;;;;;;6266317;28;20036;-73
2021/03/08 00:44:24;;;;;;;28.65;20.27;;;;;;;;;;6290801;28;20041;-73
2021/03/08 00:47:25;;;;;;;29.38;20.65;;;;;;;;;;6301969;28;20070;-74
2021/03/08 00:50:33;;;;;;;28.73;19.98;;;;;;;;;;6304636;28;20048;-74
2021/03/08 00:53:45;;;;;;;27.83;19.77;;;;;;;;;;6301145;28;20074;-73
2021/03/08 00:56:46;;;;;;;30.33;20.38;;;;;;;;;;6298230;28;20138;-73
2021/03/08 00:59:47;;;;;;;29.40;19.98;;;;;;;;;;6299250;28;20052;-74
2021/03/08 01:02:56;;;;;;;27.00;19.17;;;;;;;;;;6292949;28;20064;-74
2021/03/08 01:05:57;;;;;;;33.03;21.85;;;;;;;;;;6297343;28;20040;-74
2021/03/08 01:09:06;;;;;;;26.27;18.95;;;;;;;;;;6295096;28;20067;-74
2021/03/08 01:12:09;;;;;;;30.75;20.27;;;;;;;;;;6295315;28;20063;-74
2021/03/08 01:15:11;;;;;;;28.67;19.92;;;;;;;;;;6295451;28;20049;-73
2021/03/08 01:18:13;;;;;;;30.20;19.38;;;;;;;;;;6303645;28;20801;-73
2021/03/08 01:21:14;;;;;;;28.17;19.65;;;;;;;;;;6299540;28;20045;-74
2021/03/08 01:24:20;;;;;;;31.70;20.23;;;;;;;;;;6304832;28;20063;-74
2021/03/08 01:27:21;;;;;;;31.10;20.80;;;;;;;;;;6274565;28;20060;-73
2021/03/08 01:30:26;;;;;;;29.42;20.60;;;;;;;;;;6296800;28;20068;-73
2021/03/08 01:33:28;;;;;;;27.33;19.50;;;;;;;;;;6299435;28;20094;-76
2021/03/08 01:36:32;;;;;;;29.83;20.45;;;;;;;;;;6300512;28;20049;-73
2021/03/08 01:39:34;;;;;;;;;;;;;;;;;;6297740;28;20048;-74
2021/03/08 01:42:36;;;;;;;31.88;20.02;;;;;;;;;;6287478;28;19928;-73
2021/03/08 01:45:38;;;;;;;32.85;21.02;;;;;;;;;;6290400;28;20068;-73
2021/03/08 01:48:40;;;;;;;28.77;19.50;;;;;;;;;;6297364;28;20045;-74
2021/03/08 01:51:41;;;;;;;27.80;19.90;;;;;;;;;;6296341;28;20083;-73
2021/03/08 01:54:44;;;;;;;31.63;20.55;;;;;;;;;;6296983;28;20063;-74
2021/03/08 01:57:46;;;;;;;28.30;19.48;;;;;;;;;;6283535;28;20047;-73
2021/03/08 02:00:47;;;;;;;27.42;19.30;;;;;;;;;;6292864;28;20111;-74
2021/03/08 02:03:48;;;;;;;31.63;19.58;;;;;;;;;;6297129;28;20045;-73
2021/03/08 02:06:50;;;;;;;29.13;19.35;;;;;;;;;;6297049;28;20053;-74
2021/03/08 02:10:00;;;;;;;29.48;18.67;;;;;;;;;;6303769;28;20084;-73
2021/03/08 02:13:38;;;;;;;29.55;20.35;;;;;;;;;;6307591;28;20100;-73
2021/03/08 02:16:45;;;;;;;27.83;19.67;;;;;;;;;;6301022;28;20052;-73
2021/03/08 02:20:20;;;;;;;25.88;18.00;;;;;;;;;;6294178;28;20100;-73
2021/03/08 02:23:40;;;;;;;;;;;;;;;;;;6286320;28;20036;-73
2021/03/08 02:26:45;;;;;;;26.80;18.92;;;;;;;;;;6291044;28;19936;-74
2021/03/08 02:33:26;;;;;;;29.67;19.90;;;;;;;;;;6294769;28;20242;-73
2021/03/08 02:36:32;;;;;;;27.40;17.52;;;;;;;;;;6293952;28;20055;-73
2021/03/08 02:39:37;;;;;;;26.58;19.13;;;;;;;;;;6291973;28;20131;-74
2021/03/08 02:42:41;;;;;;;26.77;19.63;;;;;;;;;;6300806;28;20134;-74
2021/03/08 02:45:43;;;;;;;29.02;19.58;;;;;;;;;;6304037;28;20131;-77
2021/03/08 02:48:47;;;;;;;25.27;18.95;;;;;;;;;;6302501;28;20043;-73
2021/03/08 02:51:53;;;;;;;26.33;19.40;;;;;;;;;;6304005;28;20071;-73
2021/03/08 02:58:21;;;;;;;27.02;19.25;;;;;;;;;;6301006;28;20041;-74
2021/03/08 03:01:28;;;;;;;27.00;19.48;;;;;;;;;;6302944;28;20043;-74
2021/03/08 03:04:31;;;;;;;30.17;19.33;;;;;;;;;;6304683;28;20060;-73
2021/03/08 03:07:33;;;;;;;28.70;19.30;;;;;;;;;;6305915;28;20052;-75
2021/03/08 03:10:35;;;;;;;32.45;19.70;;;;;;;;;;6305261;28;20075;-74
2021/03/08 03:13:39;;;;;;;26.38;18.85;;;;;;;;;;6298527;28;20044;-74
2021/03/08 03:16:40;;;;;;;26.73;17.92;;;;;;;;;;6282414;28;20076;-74
2021/03/08 03:19:45;;;;;;;29.65;20.02;;;;;;;;;;6301304;28;20052;-73
2021/03/08 03:22:49;;;;;;;26.48;18.60;;;;;;;;;;6290771;28;20047;-73
2021/03/08 03:25:54;;;;;;;26.42;18.20;;;;;;;;;;6307515;28;20450;-74
2021/03/08 03:28:55;;;;;;;28.50;18.50;;;;;;;;;;6306296;28;20091;-74
2021/03/08 03:31:57;;;;;;;29.65;19.30;;;;;;;;;;6301587;28;20055;-74
2021/03/08 03:35:03;;;;;;;26.65;17.98;;;;;;;;;;6301174;28;20036;-74
2021/03/08 03:38:06;;;;;;;26.30;18.90;;;;;;;;;;6305921;28;20051;-74
2021/03/08 03:41:07;;;;;;;27.88;19.35;;;;;;;;;;6301766;28;20053;-74
2021/03/08 03:44:09;;;;;;;25.52;17.58;;;;;;;;;;6298614;28;20041;-74
2021/03/08 03:47:11;;;;;;;24.77;17.50;;;;;;;;;;6300924;28;20257;-74
2021/03/08 03:50:25;;;;;;;36.13;19.50;;;;;;;;;;6297053;28;20090;-74
2021/03/08 03:53:26;;;;;;;29.48;18.10;;;;;;;;;;6297231;28;20052;-74
2021/03/08 03:56:30;;;;;;;29.35;18.05;;;;;;;;;;6300901;28;20052;-74
2021/03/08 03:59:41;;;;;;;29.95;18.08;;;;;;;;;;6298748;28;20052;-74
2021/03/08 04:02:49;;;;;;;26.38;17.92;;;;;;;;;;6300766;28;20059;-74
2021/03/08 04:05:56;;;;;;;25.45;17.75;;;;;;;;;;6302722;28;20040;-76
2021/03/08 04:08:58;;;;;;;27.80;18.35;;;;;;;;;;6305417;28;20044;-75
2021/03/08 04:12:00;;;;;;;27.83;17.40;;;;;;;;;;6303416;28;20048;-74
2021/03/08 04:15:07;;;;;;;27.70;18.17;;;;;;;;;;6303424;28;20045;-75
2021/03/08 04:18:26;;;;;;;26.02;17.38;;;;;;;;;;6283926;28;20048;-74
2021/03/08 04:21:36;;;;;;;26.45;17.80;;;;;;;;;;6307747;28;20066;-74
2021/03/08 04:29:08;;;;;;;28.25;17.90;;;;;;;;;;6302913;28;20463;-74
2021/03/08 04:32:31;;;;;;;27.35;18.25;;;;;;;;;;6298367;28;20052;-75
2021/03/08 04:39:55;;;;;;;28.60;19.05;;;;;;;;;;6302928;28;20040;-73
2021/03/08 04:42:56;;;;;;;28.60;17.27;;;;;;;;;;6304503;28;20052;-74
2021/03/08 04:46:00;;;;;;;23.60;18.42;;;;;;;;;;6298115;28;20036;-74
2021/03/08 04:59:36;;;;;;;26.73;18.02;;;;;;;;;;6270720;28;20127;-74
2021/03/08 05:02:37;;;;;;;28.45;18.08;;;;;;;;;;6297178;28;20045;-74
2021/03/08 05:05:39;;;;;;;30.38;18.23;;;;;;;;;;6298838;28;20059;-74
2021/03/08 05:08:45;;;;;;;28.33;17.63;;;;;;;;;;6299375;28;20753;-75
2021/03/08 05:11:47;;;;;;;26.80;17.80;;;;;;;;;;6301278;28;20137;-74
2021/03/08 05:14:51;;;;;;;30.27;17.95;;;;;;;;;;6304735;28;20056;-74
2021/03/08 05:18:11;;;;;;;27.98;18.23;;;;;;;;;;6306123;28;20078;-74
2021/03/08 05:21:30;;;;;;;27.52;17.25;;;;;;;;;;6279364;28;20053;-74
2021/03/08 05:24:31;;;;;;;26.13;17.35;;;;;;;;;;6297339;28;20070;-74
2021/03/08 05:27:49;;;;;;;25.50;18.20;;;;;;;;;;6303918;28;20052;-74
2021/03/08 05:30:54;;;;;;;25.48;17.65;;;;;;;;;;6296161;28;20048;-74
2021/03/08 05:33:58;;;;;;;25.23;17.65;;;;;;;;;;6295500;28;20071;-74
2021/03/08 05:37:00;;;;;;;27.48;17.42;;;;;;;;;;6302236;28;20040;-74
2021/03/08 05:40:12;;;;;;;25.45;17.48;;;;;;;;;;6304572;28;20051;-74
2021/03/08 05:43:14;;;;;;;32.15;18.17;;;;;;;;;;6273867;28;20041;-74
2021/03/08 05:46:21;;;;;;;30.95;19.67;;;;;;;;;;6295788;28;20045;-74
2021/03/08 05:50:12;;;;;;;30.30;18.70;;;;;;;;;;6302888;28;20044;-74
2021/03/08 05:53:41;;;;;;;26.83;16.73;;;;;;;;;;6304693;28;20052;-74
2021/03/08 05:57:11;;;;;;;27.08;18.02;;;;;;;;;;6287915;28;20057;-74
2021/03/08 06:00:56;;;;;;;26.60;18.45;;;;;;;;;;6305490;28;20044;-74
2021/03/08 06:04:06;;;;;;;27.85;18.42;;;;;;;;;;6301400;28;20072;-74
2021/03/08 06:07:44;;;;;;;27.77;17.52;;;;;;;;;;6303774;28;20059;-74
2021/03/08 06:11:36;;;;;;;29.63;18.52;;;;;;;;;;6304663;28;20048;-74
2021/03/08 06:14:54;;;;;;;32.40;18.88;;;;;;;;;;6293831;28;20061;-74
2021/03/08 06:21:16;;;;;;;36.00;18.98;;;;;;;;;;6287126;28;20065;-75
2021/03/08 06:24:18;;;;;;;28.35;18.42;;;;;;;;;;6296512;28;20572;-74
2021/03/08 06:27:23;;;;;;;27.55;18.48;;;;;;;;;;6292546;28;20045;-74
2021/03/08 06:30:25;;;;;;;24.25;17.65;;;;;;;;;;6304852;28;20048;-74
2021/03/08 06:33:27;;;;;;;28.38;18.70;;;;;;;;;;6302994;28;20068;-74
2021/03/08 06:36:32;;;;;;;27.88;18.08;;;;;;;;;;6304225;28;20053;-74
2021/03/08 06:39:35;;;;;;;30.98;19.05;;;;;;;;;;6302321;28;20410;-74
2021/03/08 06:42:37;;;;;;;31.10;17.88;;;;;;;;;;6302826;28;20051;-74
2021/03/08 06:45:41;;;;;;;31.60;19.63;;;;;;;;;;6303789;28;20079;-74
2021/03/08 06:48:42;;;;;;;;;;;;;;;;;;6306350;28;20140;-74
2021/03/08 06:52:22;;;;;;;30.73;19.05;;;;;;;;;;6307562;28;19951;-74
2021/03/08 06:55:24;;;;;;;29.63;18.33;;;;;;;;;;6292991;28;20170;-74
2021/03/08 06:58:25;;;;;;;31.15;19.55;;;;;;;;;;6300177;28;21741;-74
2021/03/08 07:01:31;;;;;;;29.38;18.60;;;;;;;;;;6298282;28;20391;-73
2021/03/08 07:04:33;;;;;;;30.33;19.25;;;;;;;;;;6299234;28;20076;-74
2021/03/08 07:07:48;;;;;;;29.33;18.45;;;;;;;;;;6304730;28;20087;-74
2021/03/08 07:10:50;;;;;;;30.98;19.48;;;;;;;;;;6303180;28;20104;-74
2021/03/08 07:13:51;;;;;;;26.23;18.08;;;;;;;;;;6308707;28;20106;-74
2021/03/08 07:16:52;;;;;;;30.17;19.60;;;;;;;;;;6289820;28;20048;-75
2021/03/08 07:19:54;;;;;;;30.27;19.25;;;;;;;;;;6303590;28;20056;-74
2021/03/08 07:22:56;;;;;;;31.85;20.10;;;;;;;;;;6297667;28;20086;-74
2021/03/08 07:26:05;;;;;;;28.65;18.60;;;;;;;;;;6302150;28;20048;-73
2021/03/08 07:29:08;;;;;;;30.10;18.83;;;;;;;;;;6297641;28;20067;-74
2021/03/08 07:32:11;;;;;;;27.42;18.65;;;;;;;;;;6294252;28;20048;-74
2021/03/08 07:35:13;;;;;;;27.45;18.02;;;;;;;;;;6300086;28;20052;-73
2021/03/08 07:38:15;;;;;;;29.42;18.67;;;;;;;;;;6301069;28;20051;-75
2021/03/08 07:41:19;;;;;;;28.05;18.67;;;;;;;;;;6300597;28;20080;-75
2021/03/08 07:44:21;;;;;;;26.60;17.73;;;;;;;;;;6299476;28;20067;-74
2021/03/08 07:47:22;;;;;;;27.65;18.35;;;;;;;;;;6300816;28;20036;-74
2021/03/08 07:50:24;;;;;;;28.20;18.40;;;;;;;;;;6300660;28;20064;-74
2021/03/08 07:53:30;;;;;;;28.13;18.52;;;;;;;;;;6305075;28;20063;-73
2021/03/08 07:56:34;;;;;;;25.80;18.38;;;;;;;;;;6294232;28;20072;-75
2021/03/08 07:59:35;;;;;;;25.92;18.77;;;;;;;;;;6299243;28;20075;-74
2021/03/08 08:02:37;;;;;;;27.67;18.75;;;;;;;;;;6296538;28;20578;-74
2021/03/08 08:05:38;;;;;;;26.02;18.65;;;;;;;;;;6297016;28;20087;-74
2021/03/08 08:08:45;;;;;;;27.00;18.60;;;;;;;;;;6300207;28;20052;-74
2021/03/08 08:11:47;;;;;;;30.42;18.75;;;;;;;;;;6299260;28;20061;-74
2021/03/08 08:14:51;;;;;;;26.98;18.60;;;;;;;;;;6303305;28;20056;-74
2021/03/08 08:18:02;;;;;;;22.90;13.73;;;;;;;;;;6303467;28;20056;-73
2021/03/08 08:21:03;;;;;;;26.42;19.00;;;;;;;;;;6295509;28;20051;-74
2021/03/08 08:24:06;;;;;;;27.08;18.42;;;;;;;;;;6299654;28;20071;-74
2021/03/08 08:27:12;;;;;;;24.80;17.98;;;;;;;;;;6301419;28;20068;-75
2021/03/08 08:30:14;;;;;;;26.42;18.45;;;;;;;;;;6304909;28;20044;-74
2021/03/08 08:33:35;;;;;;;24.75;18.48;;;;;;;;;;6304691;28;20062;-74
2021/03/08 08:36:36;;;;;;;21.60;17.60;;;;;;;;;;6301585;28;20056;-74
2021/03/08 08:39:38;;;;;;;24.92;18.33;;;;;;;;;;6307413;28;20064;-72
2021/03/08 08:42:40;;;;;;;24.27;18.83;;;;;;;;;;6306362;28;20053;-73
2021/03/08 08:45:42;;;;;;;25.08;18.00;;;;;;;;;;6301924;28;20053;-74
2021/03/08 08:49:04;;;;;;;23.77;18.92;;;;;;;;;;6294154;28;20113;-74
2021/03/08 08:52:30;;;;;;;27.15;18.25;;;;;;;;;;6296927;28;20051;-76
2021/03/08 08:55:47;;;;;;;24.33;18.20;;;;;;;;;;6244716;28;20052;-76
2021/03/08 08:58:50;;;;;;;23.15;18.30;;;;;;;;;;6301635;28;20045;-76
2021/03/08 09:01:51;;;;;;;25.35;18.73;;;;;;;;;;6305942;28;20049;-76
2021/03/08 09:04:52;;;;;;;23.50;17.92;;;;;;;;;;6295841;28;20056;-76
2021/03/08 09:08:25;;;;;;;26.30;18.40;;;;;;;;;;6296744;28;20088;-76
2021/03/08 09:11:56;;;;;;;26.23;18.13;;;;;;;;;;6297753;28;20701;-76
2021/03/08 09:14:59;;;;;;;27.90;19.13;;;;;;;;;;6281149;28;20053;-76
2021/03/08 09:18:06;;;;;;;23.00;18.38;;;;;;;;;;6296439;28;20079;-76
2021/03/08 09:21:23;;;;;;;26.17;18.15;;;;;;;;;;6302745;28;20674;-76
2021/03/08 09:24:32;;;;;;;24.63;18.85;;;;;;;;;;6302615;28;20059;-76
2021/03/08 09:27:38;;;;;;;30.98;19.17;;;;;;;;;;6276931;28;20052;-76
2021/03/08 09:30:42;;;;;;;25.75;19.02;;;;;;;;;;6300941;28;20036;-76
2021/03/08 09:33:46;;;;;;;25.35;18.60;;;;;;;;;;6303005;28;20052;-76
2021/03/08 09:36:48;;;;;;;23.90;18.90;;;;;;;;;;6299798;28;20112;-76
2021/03/08 09:39:58;;;;;;;30.42;19.83;;;;;;;;;;6290924;28;20048;-76
2021/03/08 09:43:17;;;;;;;21.98;17.77;;;;;;;;;;6301649;28;20052;-76
2021/03/08 09:46:19;;;;;;;25.95;19.02;;;;;;;;;;6301695;28;20049;-76
2021/03/08 09:49:21;;;;;;;25.73;19.13;;;;;;;;;;6303657;28;20040;-75
2021/03/08 09:52:33;;;;;;;22.55;17.98;;;;;;;;;;6276971;28;20108;-76
2021/03/08 09:55:36;;;;;;;25.13;18.20;;;;;;;;;;6292762;28;20040;-76
2021/03/08 09:58:37;;;;;;;23.13;17.77;;;;;;;;;;6288140;28;20048;-76
2021/03/08 10:01:39;;;;;;;25.75;17.20;;;;;;;;;;6293498;28;20055;-76
2021/03/08 10:04:41;;;;;;;23.08;17.50;;;;;;;;;;6285758;28;20108;-76
2021/03/08 10:07:53;;;;;;;27.23;17.88;;;;;;;;;;6286233;28;20048;-75
2021/03/08 10:10:54;;;;;;;21.25;16.52;;;;;;;;;;6283169;28;20075;-76
2021/03/08 10:13:56;;;;;;;24.70;17.98;;;;;;;;;;6286767;28;20071;-76
2021/03/08 10:17:05;;;;;;;20.52;16.13;;;;;;;;;;6286312;28;20102;-76
2021/03/08 10:20:06;;;;;;;19.55;16.63;;;;;;;;;;6288049;28;20068;-75
2021/03/08 10:23:14;;;;;;;25.15;17.52;;;;;;;;;;6282995;28;20043;-77
2021/03/08 10:26:17;;;;;;;22.73;16.40;;;;;;;;;;6290201;28;20135;-77
2021/03/08 10:29:18;;;;;;;22.70;16.50;;;;;;;;;;6288549;28;20049;-77
2021/03/08 10:32:21;;;;;;;20.00;16.95;;;;;;;;;;6287928;28;20541;-77
2021/03/08 10:35:31;;;;;;;21.80;16.77;;;;;;;;;;6287705;28;20394;-76
2021/03/08 10:38:42;;;;;;;20.02;17.08;;;;;;;;;;6289050;28;20061;-76
2021/03/08 10:41:44;;;;;;;20.90;16.52;;;;;;;;;;6277177;28;20043;-76
2021/03/08 10:44:46;;;;;;;20.17;16.73;;;;;;;;;;6292386;28;20052;-78
2021/03/08 10:48:07;;;;;;;21.30;16.90;;;;;;;;;;6292648;28;20080;-77
2021/03/08 10:51:25;;;;;;;20.45;16.58;;;;;;;;;;6291422;28;20044;-78
2021/03/08 10:54:38;;;;;;;19.45;16.00;;;;;;;;;;6293957;28;20491;-77
2021/03/08 11:01:27;;;;;;;22.47;17.20;;;;;;;;;;6264181;28;20121;-77
2021/03/08 11:04:38;;;;;;;20.02;17.65;;;;;;;;;;6294468;28;20072;-77
2021/03/08 11:07:42;;;;;;;22.00;18.27;;;;;;;;;;6294746;28;20045;-76
2021/03/08 11:10:43;;;;;;;19.35;17.17;;;;;;;;;;6284967;28;20083;-75
2021/03/08 11:13:45;;;;;;;19.83;17.38;;;;;;;;;;6284251;28;20139;-75
2021/03/08 11:16:50;;;;;;;19.60;17.55;;;;;;;;;;6294530;28;20636;-75
2021/03/08 11:20:04;;;;;;;20.88;17.38;;;;;;;;;;6283521;28;20048;-75
2021/03/08 11:23:07;;;;;;;22.10;18.08;;;;;;;;;;6287537;28;20513;-76
2021/03/08 11:26:10;;;;;;;23.02;17.83;;;;;;;;;;6288037;28;20056;-75
2021/03/08 11:29:24;;;;;;;21.70;17.85;;;;;;;;;;6282269;28;20475;-75
2021/03/08 11:32:25;;;;;;;;;;;;;;;;;;6286046;28;20072;-76
2021/03/08 11:35:29;;;;;;;20.52;17.67;;;;;;;;;;6284724;28;19932;-76
2021/03/08 11:38:31;;;;;;;20.90;17.98;;;;;;;;;;6286215;28;20049;-75
2021/03/08 11:41:33;;;;;;;22.17;17.58;;;;;;;;;;6285810;28;20049;-76
2021/03/08 11:44:36;;;;;;;21.52;17.60;;;;;;;;;;6281642;28;20072;-78
2021/03/08 11:48:05;;;;;;;20.27;17.67;;;;;;;;;;6266729;28;20047;-78
2021/03/08 11:51:32;;;;;;;26.60;18.35;;;;;;;;;;6279351;28;20120;-79
2021/03/08 11:54:34;;;;;;;19.38;17.10;;;;;;;;;;6295090;28;20040;-75
2021/03/08 11:57:49;;;;;;;22.48;17.15;;;;;;;;;;6291297;28;20052;-76
2021/03/08 12:00:52;;;;;;;19.10;17.15;;;;;;;;;;6286863;28;20053;-76
2021/03/08 12:03:54;;;;;;;19.17;17.17;;;;;;;;;;6288907;28;20141;-76
2021/03/08 12:07:10;;;;;;;19.38;16.48;;;;;;;;;;6277599;28;20057;-77
2021/03/08 12:10:32;;;;;;;19.88;17.77;;;;;;;;;;6277450;28;20049;-76
2021/03/08 12:13:33;;;;;;;18.23;16.33;;;;;;;;;;6289779;28;20051;-76
2021/03/08 12:16:38;;;;;;;18.67;16.08;;;;;;;;;;6289023;28;20052;-76
2021/03/08 12:20:05;;;;;;;;;;;;;;;;;;;;;
2021/03/08 12:26:46;;;;;;;20.52;17.95;;;;;;;;;;6244886;28;20565;-77
2021/03/08 12:30:09;;;;;;;18.92;16.95;;;;;;;;;;6289055;28;20052;-79
2021/03/08 12:33:33;;;;;;;25.27;17.85;;;;;;;;;;6290940;28;20113;-76
2021/03/08 12:36:40;;;;;;;19.67;17.58;;;;;;;;;;6292222;28;20120;-76
2021/03/08 12:40:08;;;;;;;21.02;16.92;;;;;;;;;;6254377;28;20045;-76
2021/03/08 12:43:18;;;;;;;19.88;17.77;;;;;;;;;;6280059;28;20055;-77
2021/03/08 12:46:24;;;;;;;18.73;16.80;;;;;;;;;;6288431;28;20052;-76
2021/03/08 12:49:39;;;;;;;19.40;16.63;;;;;;;;;;6289624;28;20049;-78
2021/03/08 12:52:47;;;;;;;19.13;16.13;;;;;;;;;;6287195;28;20522;-75
2021/03/08 12:56:07;;;;;;;19.10;17.25;;;;;;;;;;6289208;28;20446;-76
2021/03/08 12:59:11;;;;;;;20.50;18.23;;;;;;;;;;6288676;28;20053;-76
2021/03/08 13:02:12;;;;;;;19.23;17.23;;;;;;;;;;6283465;28;20072;-75
2021/03/08 13:05:14;;;;;;;19.88;17.10;;;;;;;;;;6287718;28;20068;-75
2021/03/08 13:08:16;;;;;;;21.17;18.40;;;;;;;;;;6288716;28;20091;-76
2021/03/08 13:11:18;;;;;;;21.00;16.67;;;;;;;;;;6293250;28;20106;-80
2021/03/08 13:14:19;;;;;;;20.10;18.00;;;;;;;;;;6292176;28;20397;-77
2021/03/08 13:17:21;;;;;;;20.13;17.92;;;;;;;;;;6286165;28;20082;-75
2021/03/08 13:20:22;;;;;;;23.85;17.52;;;;;;;;;;6288312;28;20055;-75
2021/03/08 13:23:23;;;;;;;19.83;17.33;;;;;;;;;;6287476;28;20105;-75
2021/03/08 13:26:26;;;;;;;20.38;17.02;;;;;;;;;;6288892;28;20675;-75
2021/03/08 13:29:27;;;;;;;19.58;17.50;;;;;;;;;;6289556;28;20056;-77
2021/03/08 13:32:28;;;;;;;19.50;17.20;;;;;;;;;;6288301;28;20052;-75
2021/03/08 13:35:33;;;;;;;21.05;17.20;;;;;;;;;;6287530;28;20064;-75
2021/03/08 13:38:34;;;;;;;21.85;17.23;;;;;;;;;;6289830;28;20052;-75
2021/03/08 13:41:36;;;;;;;18.95;16.95;;;;;;;;;;6276245;28;20150;-76
2021/03/08 13:44:38;;;;;;;19.50;17.38;;;;;;;;;;6294095;28;20055;-75
2021/03/08 13:47:39;;;;;;;19.33;17.15;;;;;;;;;;6286269;28;20409;-75
2021/03/08 13:50:40;;;;;;;18.50;16.35;;;;;;;;;;6282556;28;20086;-76
2021/03/08 13:53:42;;;;;;;18.98;16.65;;;;;;;;;;6283351;28;20064;-76
2021/03/08 13:56:44;;;;;;;20.55;16.75;;;;;;;;;;6283741;28;20049;-75
2021/03/08 13:59:45;;;;;;;19.95;17.40;;;;;;;;;;6283494;28;20125;-75
2021/03/08 14:02:46;;;;;;;19.42;17.42;;;;;;;;;;6284886;28;20053;-76
2021/03/08 14:06:10;;;;;;;;;;;;;;;;;;;;;
2021/03/08 14:09:12;;;;;;;22.75;17.98;;;;;;;;;;6284251;28;20162;-76
2021/03/08 14:12:20;;;;;;;19.02;16.65;;;;;;;;;;6295663;28;20132;-76
2021/03/08 14:15:22;;;;;;;24.48;17.77;;;;;;;;;;6291554;28;20073;-74
2021/03/08 14:18:23;;;;;;;19.42;17.35;;;;;;;;;;6295600;28;20041;-73
2021/03/08 14:21:24;;;;;;;20.70;17.85;;;;;;;;;;6299778;28;20078;-72
2021/03/08 14:24:31;;;;;;;20.27;18.20;;;;;;;;;;6293336;28;20408;-74
2021/03/08 14:27:34;;;;;;;20.20;18.05;;;;;;;;;;6291611;28;20052;-74
2021/03/08 14:30:35;;;;;;;21.10;17.77;;;;;;;;;;6286860;28;20044;-75
2021/03/08 14:33:36;;;;;;;21.25;17.05;;;;;;;;;;6286773;28;20049;-74
2021/03/08 14:36:38;;;;;;;21.80;17.25;;;;;;;;;;6286012;28;20055;-75
2021/03/08 14:39:40;;;;;;;20.35;17.05;;;;;;;;;;6283766;28;20052;-75
2021/03/08 14:42:42;;;;;;;19.75;17.48;;;;;;;;;;6289058;28;20048;-75
2021/03/08 14:45:43;;;;;;;20.05;16.75;;;;;;;;;;6286942;28;20391;-74
2021/03/08 14:48:44;;;;;;;19.80;16.88;;;;;;;;;;6286775;28;20041;-75
2021/03/08 14:51:46;;;;;;;17.67;15.88;;;;;;;;;;6287412;28;20045;-74
2021/03/08 14:54:47;;;;;;;19.95;17.55;;;;;;;;;;6286588;28;20139;-74
2021/03/08 14:57:49;;;;;;;20.98;16.13;;;;;;;;;;6284937;28;20072;-74
2021/03/08 15:00:50;;;;;;;19.95;16.88;;;;;;;;;;6293227;28;20037;-74
2021/03/08 15:03:52;;;;;;;18.55;16.00;;;;;;;;;;6291592;28;20048;-75
2021/03/08 15:06:53;;;;;;;20.02;16.60;;;;;;;;;;6293621;28;20056;-75
2021/03/08 15:09:54;;;;;;;18.45;15.48;;;;;;;;;;6283492;28;20075;-74
2021/03/08 15:12:56;;;;;;;20.42;16.42;;;;;;;;;;6287953;28;20044;-74
2021/03/08 15:16:00;;;;;;;20.90;16.23;;;;;;;;;;6288364;28;20060;-74
2021/03/08 15:19:02;;;;;;;21.85;16.50;;;;;;;;;;6287421;28;20048;-74
2021/03/08 15:22:03;;;;;;;20.55;16.90;;;;;;;;;;6289947;28;20546;-75
2021/03/08 15:25:06;;;;;;;21.52;16.17;;;;;;;;;;6290134;28;20056;-75
2021/03/08 15:28:17;;;;;;;20.63;15.73;;;;;;;;;;6293930;28;20408;-75
2021/03/08 15:31:26;;;;;;;18.10;15.73;;;;;;;;;;6278746;28;20048;-74
2021/03/08 15:34:28;;;;;;;22.45;15.73;;;;;;;;;;6291738;28;20116;-74
2021/03/08 15:37:29;;;;;;;18.23;15.70;;;;;;;;;;6292552;28;20063;-75
2021/03/08 15:40:31;;;;;;;20.17;17.20;;;;;;;;;;6293512;28;20140;-74
2021/03/08 15:43:33;;;;;;;18.75;16.27;;;;;;;;;;6291790;28;20040;-75
2021/03/08 15:46:35;;;;;;;19.63;15.82;;;;;;;;;;6288603;28;20048;-75
2021/03/08 15:49:36;;;;;;;18.35;16.35;;;;;;;;;;6285234;28;20698;-75
2021/03/08 15:52:37;;;;;;;18.70;16.08;;;;;;;;;;6290899;28;20156;-75
2021/03/08 15:55:38;;;;;;;19.80;16.40;;;;;;;;;;6289694;28;20075;-75
2021/03/08 15:58:41;;;;;;;18.95;15.60;;;;;;;;;;6289449;28;20126;-75
2021/03/08 16:01:43;;;;;;;17.65;15.85;;;;;;;;;;6288954;28;20515;-75
2021/03/08 16:04:45;;;;;;;18.10;15.40;;;;;;;;;;6287178;28;20147;-74
2021/03/08 16:07:46;;;;;;;18.65;16.30;;;;;;;;;;6290853;28;20060;-75
2021/03/08 16:10:47;;;;;;;18.45;15.27;;;;;;;;;;6284668;28;20045;-75
2021/03/08 16:14:02;;;;;;;;;;;;;;;;;;;;;
2021/03/08 16:17:07;;;;;;;21.80;16.08;;;;;;;;;;6281632;28;20123;-75
2021/03/08 16:20:18;;;;;;;20.10;16.08;;;;;;;;;;6291413;28;20047;-75
2021/03/08 16:23:19;;;;;;;19.90;15.40;;;;;;;;;;6292081;28;20047;-75
2021/03/08 16:26:20;;;;;;;20.40;16.45;;;;;;;;;;6285053;28;20056;-74
2021/03/08 16:29:22;;;;;;;18.92;16.45;;;;;;;;;;6286405;28;20135;-76
2021/03/08 16:32:24;;;;;;;21.52;16.00;;;;;;;;;;6291412;28;20041;-75
2021/03/08 16:35:26;;;;;;;22.15;16.65;;;;;;;;;;6289038;28;20076;-75
2021/03/08 16:38:27;;;;;;;20.08;16.23;;;;;;;;;;6274275;28;20049;-75
2021/03/08 16:41:30;;;;;;;22.05;16.65;;;;;;;;;;6283244;28;21888;-77
2021/03/08 16:44:32;;;;;;;20.77;16.40;;;;;;;;;;6283264;28;20056;-76
2021/03/08 16:47:34;;;;;;;21.45;16.00;;;;;;;;;;6281530;28;20569;-76
2021/03/08 16:50:35;;;;;;;21.90;16.02;;;;;;;;;;6282019;28;20484;-75
2021/03/08 16:53:36;;;;;;;21.88;16.58;;;;;;;;;;6283275;28;20131;-76
2021/03/08 16:56:37;;;;;;;21.05;15.75;;;;;;;;;;6283049;28;20139;-77
2021/03/08 16:59:40;;;;;;;22.20;16.73;;;;;;;;;;6283644;28;20048;-76
2021/03/08 17:02:41;;;;;;;20.48;15.57;;;;;;;;;;6283378;28;20040;-76
2021/03/08 17:05:42;;;;;;;20.65;15.65;;;;;;;;;;6286563;28;20087;-76
2021/03/08 17:08:45;;;;;;;22.20;16.92;;;;;;;;;;6286740;28;20056;-76
2021/03/08 17:11:47;;;;;;;27.70;17.13;;;;;;;;;;6282591;28;20036;-75
2021/03/08 17:14:49;;;;;;;22.88;16.73;;;;;;;;;;6288533;28;20469;-75
2021/03/08 17:17:50;;;;;;;21.55;16.73;;;;;;;;;;6288333;28;20064;-75
2021/03/08 17:20:51;;;;;;;22.20;16.13;;;;;;;;;;6288047;28;20147;-75
2021/03/08 17:23:56;;;;;;;23.88;16.58;;;;;;;;;;6291730;28;20048;-76
2021/03/08 17:26:57;;;;;;;20.98;16.77;;;;;;;;;;6292170;28;20499;-75
2021/03/08 17:29:59;;;;;;;23.98;16.90;;;;;;;;;;6290758;28;20047;-75
2021/03/08 17:33:07;;;;;;;22.98;17.70;;;;;;;;;;6269798;28;21091;-75
2021/03/08 17:36:31;;;;;;;21.95;16.95;;;;;;;;;;6277079;28;20070;-75
2021/03/08 17:39:33;;;;;;;22.90;17.58;;;;;;;;;;6285291;28;20056;-76
2021/03/08 17:42:43;;;;;;;23.85;16.88;;;;;;;;;;6304751;28;20049;-75
2021/03/08 17:46:07;;;;;;;22.35;17.15;;;;;;;;;;6281488;28;20059;-76
2021/03/08 17:49:08;;;;;;;25.40;17.85;;;;;;;;;;6293087;28;20124;-76
2021/03/08 17:52:11;;;;;;;24.75;17.55;;;;;;;;;;6298237;28;21190;-76
2021/03/08 17:55:44;;;;;;;24.85;17.95;;;;;;;;;;6270385;28;20745;-75
2021/03/08 17:58:47;;;;;;;26.13;18.73;;;;;;;;;;6263719;28;20057;-75
2021/03/08 18:02:02;;;;;;;24.90;16.40;;;;;;;;;;6293442;28;20048;-76
2021/03/08 18:05:08;;;;;;;22.83;18.17;;;;;;;;;;6301554;28;20454;-74
2021/03/08 18:08:15;;;;;;;25.70;18.20;;;;;;;;;;6301200;28;20041;-74
2021/03/08 18:11:23;;;;;;;27.30;18.77;;;;;;;;;;6289103;28;20048;-74
2021/03/08 18:14:24;;;;;;;23.10;18.77;;;;;;;;;;6292730;28;20096;-73
2021/03/08 18:17:26;;;;;;;25.90;18.60;;;;;;;;;;6286349;28;20040;-73
2021/03/08 18:20:29;;;;;;;28.83;18.15;;;;;;;;;;6296640;28;20061;-73
2021/03/08 18:23:31;;;;;;;26.38;19.65;;;;;;;;;;6301778;28;20055;-75
2021/03/08 18:26:33;;;;;;;26.27;18.65;;;;;;;;;;6302517;28;20048;-74
2021/03/08 18:29:35;;;;;;;28.77;19.33;;;;;;;;;;6301126;28;20502;-74
2021/03/08 18:32:37;;;;;;;25.38;18.73;;;;;;;;;;6286082;28;20053;-74
2021/03/08 18:35:39;;;;;;;24.05;18.65;;;;;;;;;;6309488;28;20040;-74
2021/03/08 18:38:44;;;;;;;26.33;18.65;;;;;;;;;;6308663;28;20056;-74
2021/03/08 18:41:46;;;;;;;26.45;18.40;;;;;;;;;;6306318;28;20044;-74
2021/03/08 18:44:48;;;;;;;37.97;20.00;;;;;;;;;;6297747;28;20071;-74
2021/03/08 18:47:50;;;;;;;28.30;18.08;;;;;;;;;;6305119;28;20053;-73
2021/03/08 18:50:52;;;;;;;28.58;19.80;;;;;;;;;;6307498;28;20044;-74
2021/03/08 18:53:57;;;;;;;28.70;19.25;;;;;;;;;;6307035;28;20056;-74